createdAt,value
2023-01-18T00:00:05.577Z,13.73
2023-01-18T00:05:08.932Z,14.17
2023-01-18T00:10:13.213Z,15.53
2023-01-18T00:15:16.195Z,16.83
2023-01-18T00:20:20.436Z,17.80
2023-01-18T00:25:25.579Z,13.20
2023-01-18T00:30:29.594Z,15.67
2023-01-18T00:35:32.373Z,16.20
2023-01-18T00:40:36.384Z,13.27
2023-01-18T00:45:40.925Z,12.73
2023-01-18T00:50:43.635Z,14.67
2023-01-18T00:55:47.991Z,13.87
2023-01-18T01:00:53.621Z,12.07
2023-01-18T01:06:15.676Z,11.83
2023-01-18T01:11:19.793Z,10.93
2023-01-18T01:16:41.094Z,14.50
2023-01-18T01:22:06.431Z,11.80
2023-01-18T01:27:11.221Z,10.23
2023-01-18T01:32:14.045Z,11.33
2023-01-18T01:37:16.697Z,11.00
2023-01-18T01:42:23.636Z,15.30
2023-01-18T01:47:38.534Z,14.10
2023-01-18T01:52:44.934Z,11.97
2023-01-18T01:57:52.620Z,13.87
2023-01-18T02:02:59.793Z,10.30
2023-01-18T02:08:04.088Z,14.07
2023-01-18T02:13:10.986Z,12.87
2023-01-18T02:18:25.890Z,12.17
2023-01-18T02:24:17.828Z,13.87
2023-01-18T02:29:31.227Z,11.23
2023-01-18T02:34:41.069Z,9.73
2023-01-18T02:39:56.608Z,12.83
2023-01-18T02:45:21.105Z,13.70
2023-01-18T02:50:25.312Z,12.20
2023-01-18T02:55:45.752Z,12.83
2023-01-18T03:00:55.265Z,14.07
2023-01-18T03:06:01.905Z,13.80
2023-01-18T03:11:11.545Z,12.97
2023-01-18T03:16:22.659Z,13.60
2023-01-18T03:21:29.286Z,14.60
2023-01-18T03:26:42.913Z,12.83
2023-01-18T03:32:07.946Z,11.37
2023-01-18T03:37:15.190Z,12.20
2023-01-18T03:42:21.423Z,12.70
2023-01-18T03:47:26.766Z,14.37
2023-01-18T03:52:37.556Z,14.87
2023-01-18T03:57:45.435Z,12.00
2023-01-18T04:02:51.063Z,12.53
2023-01-18T04:08:42.974Z,19.63
2023-01-18T04:14:20.761Z,13.83
2023-01-18T04:33:07.056Z,12.50
2023-01-18T04:38:59.534Z,14.03
2023-01-18T04:45:44.857Z,15.43
2023-01-18T04:51:26.688Z,16.43
2023-01-18T05:03:21.236Z,14.73
2023-01-18T05:09:34.089Z,14.97
2023-01-18T05:46:05.946Z,21.90
2023-01-18T06:04:49.720Z,23.33
2023-01-18T06:21:46.996Z,23.60
2023-01-18T06:27:15.562Z,23.10
2023-01-18T06:57:42.092Z,21.20
2023-01-18T07:03:13.016Z,19.07
2023-01-18T07:09:03.936Z,18.20
2023-01-18T07:14:34.040Z,20.57
2023-01-18T07:20:14.642Z,19.07
2023-01-18T07:25:30.906Z,20.87
2023-01-18T07:30:59.791Z,17.97
2023-01-18T07:36:20.866Z,18.93
2023-01-18T07:47:30.451Z,16.03
2023-01-18T07:52:49.045Z,17.33
2023-01-18T07:57:55.211Z,13.87
2023-01-18T08:02:59.682Z,16.83
2023-01-18T08:08:02.452Z,19.03
2023-01-18T08:13:05.974Z,20.93
2023-01-18T08:18:09.992Z,20.27
2023-01-18T08:23:12.993Z,17.97
2023-01-18T08:28:16.035Z,20.23
2023-01-18T08:35:16.268Z,19.63
2023-01-18T08:40:55.751Z,26.57
2023-01-18T08:46:53.102Z,18.33
2023-01-18T08:52:16.637Z,27.73
2023-01-18T08:57:40.495Z,21.27
2023-01-18T09:03:12.006Z,19.77
2023-01-18T09:19:56.104Z,18.90
2023-01-18T09:25:41.919Z,18.17
2023-01-18T09:30:45.109Z,20.07
2023-01-18T09:35:57.201Z,21.83
2023-01-18T09:41:53.508Z,20.80
2023-01-18T09:47:09.290Z,22.27
2023-01-18T09:52:57.739Z,21.23
2023-01-18T10:05:16.530Z,18.57
2023-01-18T10:17:16.687Z,21.90
2023-01-18T10:22:58.283Z,21.00
2023-01-18T10:34:18.553Z,18.43
2023-01-18T10:45:11.953Z,17.57
2023-01-18T10:56:14.447Z,18.13
2023-01-18T11:01:26.576Z,20.00
2023-01-18T11:07:24.634Z,18.13
2023-01-18T11:13:03.450Z,17.23
2023-01-18T11:18:31.541Z,20.53
2023-01-18T11:24:33.552Z,22.83
2023-01-18T11:30:08.272Z,19.70
2023-01-18T11:35:54.535Z,20.20
2023-01-18T11:48:02.218Z,22.13
2023-01-18T12:12:18.428Z,25.60
2023-01-18T12:18:16.044Z,23.30
2023-01-18T12:30:52.883Z,25.23
2023-01-18T12:43:04.461Z,25.40
2023-01-18T13:37:36.886Z,26.13
2023-01-18T13:50:06.525Z,23.43
2023-01-18T14:01:55.249Z,25.47
2023-01-18T14:07:00.801Z,26.53
2023-01-18T14:12:04.747Z,26.80
2023-01-18T14:17:17.006Z,31.63
2023-01-18T14:22:34.862Z,26.50
2023-01-18T14:28:14.497Z,26.27
2023-01-18T14:39:41.614Z,24.17
2023-01-18T14:45:04.890Z,23.00
2023-01-18T14:50:16.524Z,25.87
2023-01-18T14:55:45.924Z,22.70
2023-01-18T15:00:56.372Z,23.40
2023-01-18T15:06:13.333Z,21.83
2023-01-18T15:11:29.603Z,19.60
2023-01-18T15:17:12.215Z,20.57
2023-01-18T15:22:41.901Z,20.60
2023-01-18T15:27:50.486Z,18.40
2023-01-18T15:33:12.819Z,19.63
2023-01-18T15:38:29.570Z,16.33
2023-01-18T15:43:35.532Z,17.07
2023-01-18T15:48:47.305Z,15.17
2023-01-18T15:53:56.136Z,18.67
2023-01-18T15:59:01.729Z,20.37
2023-01-18T16:04:39.978Z,19.27
2023-01-18T16:09:43.989Z,17.70
2023-01-18T16:14:53.927Z,18.33
2023-01-18T16:19:58.596Z,19.07
2023-01-18T16:25:08.909Z,20.27
2023-01-18T16:30:23.233Z,20.00
2023-01-18T16:35:26.680Z,17.27
2023-01-18T16:40:30.766Z,20.07
2023-01-18T16:45:36.218Z,21.30
2023-01-18T16:50:39.353Z,21.00
2023-01-18T16:55:44.569Z,20.60
2023-01-18T17:00:53.034Z,19.23
2023-01-18T17:05:56.264Z,19.00
2023-01-18T17:11:01.256Z,20.67
2023-01-18T17:16:03.981Z,19.53
2023-01-18T17:21:06.945Z,13.67
2023-01-18T17:26:15.005Z,15.30
2023-01-18T17:31:17.681Z,13.17
2023-01-18T17:36:20.391Z,13.47
2023-01-18T17:41:28.723Z,15.53
2023-01-18T17:46:32.812Z,13.90
2023-01-18T17:51:45.979Z,11.50
2023-01-18T17:56:50.024Z,10.00
2023-01-18T18:02:01.304Z,11.00
2023-01-18T18:07:07.289Z,8.93
2023-01-18T18:12:12.638Z,12.77
2023-01-18T18:17:18.499Z,13.03
2023-01-18T18:22:21.513Z,15.57
2023-01-18T18:27:37.335Z,21.20
2023-01-18T18:32:46.894Z,16.27
2023-01-18T18:37:49.730Z,12.50
2023-01-18T18:43:01.857Z,12.23
2023-01-18T18:48:06.265Z,11.40
2023-01-18T18:53:09.265Z,12.57
2023-01-18T18:58:13.730Z,8.77
2023-01-18T19:03:16.454Z,8.93
2023-01-18T19:08:19.410Z,8.37
2023-01-18T19:13:23.422Z,11.07
2023-01-18T19:18:26.124Z,8.30
2023-01-18T19:23:29.034Z,9.30
2023-01-18T19:28:33.014Z,7.70
2023-01-18T19:33:36.719Z,6.27
2023-01-18T19:38:45.667Z,6.13
2023-01-18T19:43:50.970Z,6.97
2023-01-18T19:48:57.562Z,6.83
2023-01-18T19:54:00.327Z,10.33
2023-01-18T19:59:04.585Z,10.17
2023-01-18T20:04:08.351Z,10.97
2023-01-18T20:09:20.301Z,9.63
2023-01-18T20:14:36.650Z,11.50
2023-01-18T20:19:44.246Z,10.87
2023-01-18T20:24:49.820Z,13.87
2023-01-18T20:29:55.189Z,10.63
2023-01-18T20:34:58.023Z,12.60
2023-01-18T20:40:00.975Z,13.80
2023-01-18T20:45:05.620Z,16.03
2023-01-18T20:50:09.734Z,14.50
2023-01-18T20:55:14.658Z,13.67
2023-01-18T21:00:21.184Z,14.20
2023-01-18T21:05:25.311Z,13.80
2023-01-18T21:10:38.486Z,15.27
2023-01-18T21:15:45.711Z,14.90
2023-01-18T21:20:52.706Z,15.57
2023-01-18T21:25:58.399Z,14.23
2023-01-18T21:31:03.977Z,13.30
2023-01-18T21:36:09.117Z,17.00
2023-01-18T21:41:30.168Z,12.73
2023-01-18T21:46:34.466Z,19.53
2023-01-18T21:52:03.140Z,16.57
2023-01-18T21:57:08.589Z,17.87
2023-01-18T22:02:12.713Z,19.83
2023-01-18T22:07:18.286Z,23.73
2023-01-18T22:12:21.302Z,20.87
2023-01-18T22:18:09.363Z,17.43
2023-01-18T22:23:20.406Z,24.00
2023-01-18T22:28:26.063Z,16.60
2023-01-18T22:33:48.113Z,24.63
2023-01-18T22:38:51.024Z,19.60
2023-01-18T22:43:55.063Z,23.20
2023-01-18T22:48:59.524Z,27.57
2023-01-18T22:54:02.166Z,34.57
2023-01-18T22:59:04.787Z,27.60
2023-01-18T23:04:09.250Z,27.67
2023-01-18T23:09:12.669Z,29.40
2023-01-18T23:14:33.371Z,30.50
2023-01-18T23:19:37.670Z,26.50
2023-01-18T23:24:40.779Z,30.70
2023-01-18T23:29:43.435Z,27.00
2023-01-18T23:34:47.749Z,25.87
2023-01-18T23:40:08.201Z,31.80
2023-01-18T23:45:29.134Z,22.70
2023-01-18T23:50:51.227Z,27.97
2023-01-18T23:55:54.215Z,23.20
